sensor_id;sensor_type;location;lat;lon;timestamp;temperature;humidity
32965;DHT22;19317;48.226;11.686;2022-12-29T00:02:03;3.60;78.60
32965;DHT22;19317;48.226;11.686;2022-12-29T00:06:54;3.70;78.30
32965;DHT22;19317;48.226;11.686;2022-12-29T00:11:44;3.70;78.30
32965;DHT22;19317;48.226;11.686;2022-12-29T00:16:35;3.70;78.30
32965;DHT22;19317;48.226;11.686;2022-12-29T00:21:27;3.60;78.60
32965;DHT22;19317;48.226;11.686;2022-12-29T00:26:17;3.50;78.70
32965;DHT22;19317;48.226;11.686;2022-12-29T00:31:11;3.60;78.20
32965;DHT22;19317;48.226;11.686;2022-12-29T00:36:08;3.60;78.20
32965;DHT22;19317;48.226;11.686;2022-12-29T00:41:01;3.60;78.10
32965;DHT22;19317;48.226;11.686;2022-12-29T00:45:51;3.60;77.80
32965;DHT22;19317;48.226;11.686;2022-12-29T00:50:41;3.60;77.70
32965;DHT22;19317;48.226;11.686;2022-12-29T00:55:36;3.60;77.50
32965;DHT22;19317;48.226;11.686;2022-12-29T01:00:27;3.60;77.00
32965;DHT22;19317;48.226;11.686;2022-12-29T01:05:17;3.60;76.90
32965;DHT22;19317;48.226;11.686;2022-12-29T01:10:08;3.60;77.10
32965;DHT22;19317;48.226;11.686;2022-12-29T01:14:58;3.60;77.00
32965;DHT22;19317;48.226;11.686;2022-12-29T01:19:49;3.50;77.20
32965;DHT22;19317;48.226;11.686;2022-12-29T01:24:39;3.50;76.90
32965;DHT22;19317;48.226;11.686;2022-12-29T01:29:29;3.50;76.90
32965;DHT22;19317;48.226;11.686;2022-12-29T01:34:20;3.50;76.50
32965;DHT22;19317;48.226;11.686;2022-12-29T01:39:10;3.50;76.40
32965;DHT22;19317;48.226;11.686;2022-12-29T01:44:02;3.60;76.20
32965;DHT22;19317;48.226;11.686;2022-12-29T01:53:57;3.60;76.20
32965;DHT22;19317;48.226;11.686;2022-12-29T01:58:52;3.50;76.30
32965;DHT22;19317;48.226;11.686;2022-12-29T02:03:45;3.60;76.20
32965;DHT22;19317;48.226;11.686;2022-12-29T02:08:36;3.60;76.10
32965;DHT22;19317;48.226;11.686;2022-12-29T02:13:28;3.50;76.10
32965;DHT22;19317;48.226;11.686;2022-12-29T02:48:52;3.90;74.00
32965;DHT22;19317;48.226;11.686;2022-12-29T02:53:44;4.00;72.90
32965;DHT22;19317;48.226;11.686;2022-12-29T02:58:35;4.10;72.40
32965;DHT22;19317;48.226;11.686;2022-12-29T03:08:54;4.20;71.60
32965;DHT22;19317;48.226;11.686;2022-12-29T03:13:50;4.10;71.80
32965;DHT22;19317;48.226;11.686;2022-12-29T03:18:55;4.30;71.00
32965;DHT22;19317;48.226;11.686;2022-12-29T03:23:48;4.30;70.90
32965;DHT22;19317;48.226;11.686;2022-12-29T03:28:47;4.40;70.30
32965;DHT22;19317;48.226;11.686;2022-12-29T03:33:39;4.50;69.70
32965;DHT22;19317;48.226;11.686;2022-12-29T03:43:31;4.70;68.50
32965;DHT22;19317;48.226;11.686;2022-12-29T03:48:22;4.70;68.90
32965;DHT22;19317;48.226;11.686;2022-12-29T03:53:12;4.80;68.10
32965;DHT22;19317;48.226;11.686;2022-12-29T03:58:02;4.80;68.20
32965;DHT22;19317;48.226;11.686;2022-12-29T04:02:53;4.80;68.70
32965;DHT22;19317;48.226;11.686;2022-12-29T04:07:43;4.90;68.20
32965;DHT22;19317;48.226;11.686;2022-12-29T04:12:34;4.90;68.20
32965;DHT22;19317;48.226;11.686;2022-12-29T04:17:24;5.00;68.20
32965;DHT22;19317;48.226;11.686;2022-12-29T04:22:15;5.20;66.70
32965;DHT22;19317;48.226;11.686;2022-12-29T04:27:05;5.40;66.20
32965;DHT22;19317;48.226;11.686;2022-12-29T04:31:56;5.50;65.20
32965;DHT22;19317;48.226;11.686;2022-12-29T04:36:46;5.60;65.30
32965;DHT22;19317;48.226;11.686;2022-12-29T04:41:37;5.50;65.70
32965;DHT22;19317;48.226;11.686;2022-12-29T04:46:27;5.50;66.00
32965;DHT22;19317;48.226;11.686;2022-12-29T04:51:18;5.60;65.00
32965;DHT22;19317;48.226;11.686;2022-12-29T04:56:08;5.60;65.10
32965;DHT22;19317;48.226;11.686;2022-12-29T05:00:59;5.70;64.80
32965;DHT22;19317;48.226;11.686;2022-12-29T05:05:52;5.70;64.90
32965;DHT22;19317;48.226;11.686;2022-12-29T05:10:45;5.70;65.30
32965;DHT22;19317;48.226;11.686;2022-12-29T05:15:35;5.70;64.60
32965;DHT22;19317;48.226;11.686;2022-12-29T05:20:26;5.80;64.30
32965;DHT22;19317;48.226;11.686;2022-12-29T05:25:16;5.80;64.90
32965;DHT22;19317;48.226;11.686;2022-12-29T05:30:07;5.70;65.50
32965;DHT22;19317;48.226;11.686;2022-12-29T05:34:58;5.70;65.40
32965;DHT22;19317;48.226;11.686;2022-12-29T05:39:48;5.70;65.60
32965;DHT22;19317;48.226;11.686;2022-12-29T05:44:39;5.70;66.00
32965;DHT22;19317;48.226;11.686;2022-12-29T05:49:29;5.70;66.30
32965;DHT22;19317;48.226;11.686;2022-12-29T05:54:19;5.70;66.00
32965;DHT22;19317;48.226;11.686;2022-12-29T05:59:10;5.60;66.60
32965;DHT22;19317;48.226;11.686;2022-12-29T06:04:00;5.70;65.90
32965;DHT22;19317;48.226;11.686;2022-12-29T06:08:51;5.70;65.80
32965;DHT22;19317;48.226;11.686;2022-12-29T06:13:41;5.80;65.40
32965;DHT22;19317;48.226;11.686;2022-12-29T06:18:32;5.80;65.60
32965;DHT22;19317;48.226;11.686;2022-12-29T06:23:22;5.80;65.30
32965;DHT22;19317;48.226;11.686;2022-12-29T06:28:13;5.80;65.80
32965;DHT22;19317;48.226;11.686;2022-12-29T06:33:03;5.80;65.60
32965;DHT22;19317;48.226;11.686;2022-12-29T06:37:53;5.80;65.50
32965;DHT22;19317;48.226;11.686;2022-12-29T06:42:44;5.80;65.10
32965;DHT22;19317;48.226;11.686;2022-12-29T06:47:35;5.80;66.10
32965;DHT22;19317;48.226;11.686;2022-12-29T06:52:26;5.80;66.10
32965;DHT22;19317;48.226;11.686;2022-12-29T06:57:16;5.80;66.00
32965;DHT22;19317;48.226;11.686;2022-12-29T07:02:06;5.90;65.20
32965;DHT22;19317;48.226;11.686;2022-12-29T07:06:58;5.90;65.20
32965;DHT22;19317;48.226;11.686;2022-12-29T07:11:49;5.90;64.60
32965;DHT22;19317;48.226;11.686;2022-12-29T07:16:39;5.90;64.40
32965;DHT22;19317;48.226;11.686;2022-12-29T07:21:30;6.00;64.30
32965;DHT22;19317;48.226;11.686;2022-12-29T07:26:20;6.00;64.80
32965;DHT22;19317;48.226;11.686;2022-12-29T07:31:14;6.00;64.70
32965;DHT22;19317;48.226;11.686;2022-12-29T07:36:06;6.00;65.10
32965;DHT22;19317;48.226;11.686;2022-12-29T07:40:57;6.20;63.50
32965;DHT22;19317;48.226;11.686;2022-12-29T07:45:48;6.30;63.60
32965;DHT22;19317;48.226;11.686;2022-12-29T07:50:38;6.30;63.90
32965;DHT22;19317;48.226;11.686;2022-12-29T07:55:29;6.30;63.60
32965;DHT22;19317;48.226;11.686;2022-12-29T08:00:20;6.30;63.10
32965;DHT22;19317;48.226;11.686;2022-12-29T08:05:11;6.40;62.20
32965;DHT22;19317;48.226;11.686;2022-12-29T08:10:01;6.50;62.60
32965;DHT22;19317;48.226;11.686;2022-12-29T08:14:52;6.60;62.10
32965;DHT22;19317;48.226;11.686;2022-12-29T08:19:43;6.90;60.90
32965;DHT22;19317;48.226;11.686;2022-12-29T08:24:33;7.20;59.80
32965;DHT22;19317;48.226;11.686;2022-12-29T08:29:24;7.40;58.50
32965;DHT22;19317;48.226;11.686;2022-12-29T08:34:14;7.70;58.70
32965;DHT22;19317;48.226;11.686;2022-12-29T08:39:05;7.70;58.40
32965;DHT22;19317;48.226;11.686;2022-12-29T08:43:55;7.50;59.30
32965;DHT22;19317;48.226;11.686;2022-12-29T08:48:46;7.20;61.10
32965;DHT22;19317;48.226;11.686;2022-12-29T08:53:36;7.20;61.80
32965;DHT22;19317;48.226;11.686;2022-12-29T08:58:27;7.40;60.50
32965;DHT22;19317;48.226;11.686;2022-12-29T09:03:18;7.60;59.70
32965;DHT22;19317;48.226;11.686;2022-12-29T09:08:08;7.70;59.00
32965;DHT22;19317;48.226;11.686;2022-12-29T09:12:59;8.10;57.30
32965;DHT22;19317;48.226;11.686;2022-12-29T09:17:49;8.60;55.90
32965;DHT22;19317;48.226;11.686;2022-12-29T09:22:40;8.90;56.00
32965;DHT22;19317;48.226;11.686;2022-12-29T09:27:31;8.60;57.50
32965;DHT22;19317;48.226;11.686;2022-12-29T09:32:21;8.50;57.40
32965;DHT22;19317;48.226;11.686;2022-12-29T09:37:12;8.70;57.50
32965;DHT22;19317;48.226;11.686;2022-12-29T09:47:23;9.10;56.30
32965;DHT22;19317;48.226;11.686;2022-12-29T09:52:16;9.20;55.30
32965;DHT22;19317;48.226;11.686;2022-12-29T09:57:25;9.30;56.20
32965;DHT22;19317;48.226;11.686;2022-12-29T10:02:39;9.30;55.00
32965;DHT22;19317;48.226;11.686;2022-12-29T10:13:16;9.70;52.70
32965;DHT22;19317;48.226;11.686;2022-12-29T10:23:20;9.80;51.20
32965;DHT22;19317;48.226;11.686;2022-12-29T10:33:13;9.80;50.30
32965;DHT22;19317;48.226;11.686;2022-12-29T10:38:19;9.40;49.60
32965;DHT22;19317;48.226;11.686;2022-12-29T10:48:20;9.90;49.80
32965;DHT22;19317;48.226;11.686;2022-12-29T10:53:18;9.90;50.20
32965;DHT22;19317;48.226;11.686;2022-12-29T10:58:12;10.00;49.70
32965;DHT22;19317;48.226;11.686;2022-12-29T11:08:55;10.10;49.40
32965;DHT22;19317;48.226;11.686;2022-12-29T11:13:55;10.20;49.50
32965;DHT22;19317;48.226;11.686;2022-12-29T11:18:46;10.10;49.60
32965;DHT22;19317;48.226;11.686;2022-12-29T11:23:39;10.40;49.00
32965;DHT22;19317;48.226;11.686;2022-12-29T11:28:29;10.60;48.20
32965;DHT22;19317;48.226;11.686;2022-12-29T11:33:20;10.80;47.30
32965;DHT22;19317;48.226;11.686;2022-12-29T11:38:20;11.10;46.90
32965;DHT22;19317;48.226;11.686;2022-12-29T11:43:32;11.30;46.80
32965;DHT22;19317;48.226;11.686;2022-12-29T11:48:28;11.60;45.80
32965;DHT22;19317;48.226;11.686;2022-12-29T11:53:28;11.80;45.60
32965;DHT22;19317;48.226;11.686;2022-12-29T11:58:29;11.80;45.70
32965;DHT22;19317;48.226;11.686;2022-12-29T12:03:23;11.90;45.90
32965;DHT22;19317;48.226;11.686;2022-12-29T12:13:22;12.40;45.60
32965;DHT22;19317;48.226;11.686;2022-12-29T12:18:19;12.50;44.90
32965;DHT22;19317;48.226;11.686;2022-12-29T12:28:33;12.80;44.90
32965;DHT22;19317;48.226;11.686;2022-12-29T12:33:28;13.10;43.50
32965;DHT22;19317;48.226;11.686;2022-12-29T12:43:35;13.20;44.30
32965;DHT22;19317;48.226;11.686;2022-12-29T13:09:43;13.10;47.00
32965;DHT22;19317;48.226;11.686;2022-12-29T13:30:00;12.90;49.00
32965;DHT22;19317;48.226;11.686;2022-12-29T13:40:16;12.80;49.30
32965;DHT22;19317;48.226;11.686;2022-12-29T13:45:13;12.70;49.70
32965;DHT22;19317;48.226;11.686;2022-12-29T13:50:14;12.70;49.60
32965;DHT22;19317;48.226;11.686;2022-12-29T13:55:32;12.60;50.00
32965;DHT22;19317;48.226;11.686;2022-12-29T14:00:26;12.60;50.30
32965;DHT22;19317;48.226;11.686;2022-12-29T14:10:32;12.50;51.10
32965;DHT22;19317;48.226;11.686;2022-12-29T14:15:23;12.40;51.70
32965;DHT22;19317;48.226;11.686;2022-12-29T14:20:20;12.40;52.40
32965;DHT22;19317;48.226;11.686;2022-12-29T14:30:51;12.30;53.40
32965;DHT22;19317;48.226;11.686;2022-12-29T14:35:44;12.30;54.10
32965;DHT22;19317;48.226;11.686;2022-12-29T14:40:35;12.30;54.90
32965;DHT22;19317;48.226;11.686;2022-12-29T14:45:29;12.20;55.60
32965;DHT22;19317;48.226;11.686;2022-12-29T14:50:25;12.10;56.00
32965;DHT22;19317;48.226;11.686;2022-12-29T14:55:31;12.10;56.20
32965;DHT22;19317;48.226;11.686;2022-12-29T15:00:30;12.10;56.30
32965;DHT22;19317;48.226;11.686;2022-12-29T15:05:32;12.00;56.70
32965;DHT22;19317;48.226;11.686;2022-12-29T15:10:25;12.00;57.00
32965;DHT22;19317;48.226;11.686;2022-12-29T15:15:23;11.90;57.50
32965;DHT22;19317;48.226;11.686;2022-12-29T15:20:32;11.80;57.90
32965;DHT22;19317;48.226;11.686;2022-12-29T15:25:23;11.70;57.10
32965;DHT22;19317;48.226;11.686;2022-12-29T15:30:14;11.50;55.20
32965;DHT22;19317;48.226;11.686;2022-12-29T15:35:32;11.40;54.40
32965;DHT22;19317;48.226;11.686;2022-12-29T15:40:29;11.30;54.30
32965;DHT22;19317;48.226;11.686;2022-12-29T15:45:20;11.10;53.00
32965;DHT22;19317;48.226;11.686;2022-12-29T15:50:23;11.00;53.60
32965;DHT22;19317;48.226;11.686;2022-12-29T15:55:39;10.80;52.70
32965;DHT22;19317;48.226;11.686;2022-12-29T16:00:35;10.70;53.50
32965;DHT22;19317;48.226;11.686;2022-12-29T16:05:32;10.60;54.10
32965;DHT22;19317;48.226;11.686;2022-12-29T16:10:42;10.50;54.60
32965;DHT22;19317;48.226;11.686;2022-12-29T16:15:33;10.50;54.30
32965;DHT22;19317;48.226;11.686;2022-12-29T16:20:34;10.50;54.10
32965;DHT22;19317;48.226;11.686;2022-12-29T16:25:34;10.30;55.50
32965;DHT22;19317;48.226;11.686;2022-12-29T16:30:30;10.40;56.30
32965;DHT22;19317;48.226;11.686;2022-12-29T16:35:22;10.30;56.90
32965;DHT22;19317;48.226;11.686;2022-12-29T16:40:24;10.00;58.80
32965;DHT22;19317;48.226;11.686;2022-12-29T16:50:15;9.80;56.70
32965;DHT22;19317;48.226;11.686;2022-12-29T16:55:17;9.80;56.60
32965;DHT22;19317;48.226;11.686;2022-12-29T17:00:18;9.70;56.30
32965;DHT22;19317;48.226;11.686;2022-12-29T17:05:12;9.70;56.20
32965;DHT22;19317;48.226;11.686;2022-12-29T17:10:03;9.70;56.50
32965;DHT22;19317;48.226;11.686;2022-12-29T17:14:55;9.70;56.10
32965;DHT22;19317;48.226;11.686;2022-12-29T17:19:52;9.80;56.40
32965;DHT22;19317;48.226;11.686;2022-12-29T17:24:43;9.50;57.50
32965;DHT22;19317;48.226;11.686;2022-12-29T17:29:37;9.70;57.60
32965;DHT22;19317;48.226;11.686;2022-12-29T17:34:28;9.60;57.50
32965;DHT22;19317;48.226;11.686;2022-12-29T17:39:19;9.40;59.30
32965;DHT22;19317;48.226;11.686;2022-12-29T17:44:15;9.20;60.00
32965;DHT22;19317;48.226;11.686;2022-12-29T17:49:11;9.00;60.60
32965;DHT22;19317;48.226;11.686;2022-12-29T17:54:01;8.90;61.40
32965;DHT22;19317;48.226;11.686;2022-12-29T17:58:52;8.90;61.90
32965;DHT22;19317;48.226;11.686;2022-12-29T18:03:42;9.00;61.70
32965;DHT22;19317;48.226;11.686;2022-12-29T18:08:38;8.90;63.20
32965;DHT22;19317;48.226;11.686;2022-12-29T18:13:30;8.80;63.60
32965;DHT22;19317;48.226;11.686;2022-12-29T18:18:24;8.90;63.80
32965;DHT22;19317;48.226;11.686;2022-12-29T18:23:26;9.20;64.00
32965;DHT22;19317;48.226;11.686;2022-12-29T18:28:16;9.30;64.50
32965;DHT22;19317;48.226;11.686;2022-12-29T18:33:14;9.30;65.00
32965;DHT22;19317;48.226;11.686;2022-12-29T18:38:05;9.30;65.20
32965;DHT22;19317;48.226;11.686;2022-12-29T18:42:56;9.40;65.40
32965;DHT22;19317;48.226;11.686;2022-12-29T18:47:46;9.60;64.60
32965;DHT22;19317;48.226;11.686;2022-12-29T18:52:37;9.70;64.00
32965;DHT22;19317;48.226;11.686;2022-12-29T18:57:28;9.80;63.10
32965;DHT22;19317;48.226;11.686;2022-12-29T19:02:18;9.90;62.60
32965;DHT22;19317;48.226;11.686;2022-12-29T19:07:09;10.10;62.10
32965;DHT22;19317;48.226;11.686;2022-12-29T19:11:59;10.20;62.00
32965;DHT22;19317;48.226;11.686;2022-12-29T19:16:49;10.20;62.20
32965;DHT22;19317;48.226;11.686;2022-12-29T19:21:40;10.30;62.10
32965;DHT22;19317;48.226;11.686;2022-12-29T19:26:33;10.20;61.80
32965;DHT22;19317;48.226;11.686;2022-12-29T19:31:24;10.20;61.90
32965;DHT22;19317;48.226;11.686;2022-12-29T19:36:16;10.10;61.20
32965;DHT22;19317;48.226;11.686;2022-12-29T19:41:07;10.10;60.50
32965;DHT22;19317;48.226;11.686;2022-12-29T19:45:57;10.10;60.50
32965;DHT22;19317;48.226;11.686;2022-12-29T19:50:48;10.10;61.70
32965;DHT22;19317;48.226;11.686;2022-12-29T19:55:45;10.20;61.40
32965;DHT22;19317;48.226;11.686;2022-12-29T20:00:38;10.20;61.50
32965;DHT22;19317;48.226;11.686;2022-12-29T20:05:29;10.20;60.60
32965;DHT22;19317;48.226;11.686;2022-12-29T20:10:19;10.10;60.20
32965;DHT22;19317;48.226;11.686;2022-12-29T20:15:10;10.20;60.70
32965;DHT22;19317;48.226;11.686;2022-12-29T20:20:01;10.20;60.70
32965;DHT22;19317;48.226;11.686;2022-12-29T20:24:52;10.10;61.80
32965;DHT22;19317;48.226;11.686;2022-12-29T20:29:43;10.00;63.70
32965;DHT22;19317;48.226;11.686;2022-12-29T20:34:33;10.00;65.60
32965;DHT22;19317;48.226;11.686;2022-12-29T20:39:24;9.90;67.50
32965;DHT22;19317;48.226;11.686;2022-12-29T20:44:14;9.80;69.50
32965;DHT22;19317;48.226;11.686;2022-12-29T20:49:05;9.70;71.00
32965;DHT22;19317;48.226;11.686;2022-12-29T20:53:56;9.60;72.90
32965;DHT22;19317;48.226;11.686;2022-12-29T20:58:48;9.50;73.60
32965;DHT22;19317;48.226;11.686;2022-12-29T21:03:38;9.50;74.70
32965;DHT22;19317;48.226;11.686;2022-12-29T21:08:29;9.50;75.70
32965;DHT22;19317;48.226;11.686;2022-12-29T21:13:19;9.50;76.10
32965;DHT22;19317;48.226;11.686;2022-12-29T21:18:10;9.40;76.60
32965;DHT22;19317;48.226;11.686;2022-12-29T21:23:01;9.40;76.80
32965;DHT22;19317;48.226;11.686;2022-12-29T21:27:52;9.40;76.90
32965;DHT22;19317;48.226;11.686;2022-12-29T21:32:42;9.50;76.70
32965;DHT22;19317;48.226;11.686;2022-12-29T21:37:33;9.40;76.80
32965;DHT22;19317;48.226;11.686;2022-12-29T21:42:24;9.40;76.80
32965;DHT22;19317;48.226;11.686;2022-12-29T21:47:14;9.40;76.60
32965;DHT22;19317;48.226;11.686;2022-12-29T21:52:04;9.40;76.50
32965;DHT22;19317;48.226;11.686;2022-12-29T21:56:55;9.30;76.60
32965;DHT22;19317;48.226;11.686;2022-12-29T22:01:45;9.00;77.10
32965;DHT22;19317;48.226;11.686;2022-12-29T22:06:36;9.10;77.30
32965;DHT22;19317;48.226;11.686;2022-12-29T22:11:26;9.20;77.40
32965;DHT22;19317;48.226;11.686;2022-12-29T22:16:17;9.10;75.90
32965;DHT22;19317;48.226;11.686;2022-12-29T22:21:09;8.90;73.10
32965;DHT22;19317;48.226;11.686;2022-12-29T22:26:07;8.70;73.20
32965;DHT22;19317;48.226;11.686;2022-12-29T22:30:58;8.70;73.20
32965;DHT22;19317;48.226;11.686;2022-12-29T22:35:49;8.80;72.30
32965;DHT22;19317;48.226;11.686;2022-12-29T22:40:39;8.70;72.70
32965;DHT22;19317;48.226;11.686;2022-12-29T22:45:30;8.80;72.80
32965;DHT22;19317;48.226;11.686;2022-12-29T22:50:20;8.80;73.20
32965;DHT22;19317;48.226;11.686;2022-12-29T22:55:10;8.80;71.90
32965;DHT22;19317;48.226;11.686;2022-12-29T23:00:03;8.80;72.20
32965;DHT22;19317;48.226;11.686;2022-12-29T23:04:54;9.10;76.00
32965;DHT22;19317;48.226;11.686;2022-12-29T23:09:45;9.10;77.20
32965;DHT22;19317;48.226;11.686;2022-12-29T23:14:35;9.20;78.40
32965;DHT22;19317;48.226;11.686;2022-12-29T23:19:26;9.10;79.30
32965;DHT22;19317;48.226;11.686;2022-12-29T23:24:16;9.20;80.10
32965;DHT22;19317;48.226;11.686;2022-12-29T23:29:09;9.20;80.60
32965;DHT22;19317;48.226;11.686;2022-12-29T23:34:01;9.20;81.30
32965;DHT22;19317;48.226;11.686;2022-12-29T23:38:52;9.20;81.70
32965;DHT22;19317;48.226;11.686;2022-12-29T23:43:42;9.20;82.10
32965;DHT22;19317;48.226;11.686;2022-12-29T23:48:33;9.10;82.40
32965;DHT22;19317;48.226;11.686;2022-12-29T23:53:23;9.10;82.80
32965;DHT22;19317;48.226;11.686;2022-12-29T23:58:14;9.10;82.90
